Time;durP1;ratioP1;P1;durP2;ratioP2;P2;SDS_P1;SDS_P2;PMS_P1;PMS_P2;Temp;Humidity;BMP_temperature;BMP_pressure;BME280_temperature;BME280_humidity;BME280_pressure;Samples;Min_cycle;Max_cycle;Signal;HPM_P1;HPM_P2
2022/08/18 00:02:11;;;;;;;8.30;4.83;;;;;;;-141.28;100.00;50946.59;5091308;28;20662;-75
2022/08/18 00:04:39;;;;;;;5.40;4.80;;;;;;;-141.28;100.00;50938.72;5090573;28;20199;-75
2022/08/18 00:07:06;;;;;;;7.97;4.90;;;;;;;-141.28;100.00;50897.50;5090680;28;20203;-76
2022/08/18 00:09:35;;;;;;;6.57;5.03;;;;;;;-141.28;100.00;50844.50;5091748;28;20202;-77
2022/08/18 00:12:06;;;;;;;6.10;4.70;;;;;;;-141.28;100.00;50860.19;5059338;28;20208;-76
2022/08/18 00:14:35;;;;;;;7.93;4.90;;;;;;;-141.28;100.00;50864.13;5071718;28;20224;-75
2022/08/18 00:17:03;;;;;;;8.93;5.10;;;;;;;-141.28;100.00;50852.34;5076066;28;20196;-78
2022/08/18 00:19:31;;;;;;;8.60;5.37;;;;;;;-141.28;100.00;50844.50;5087514;28;20720;-76
2022/08/18 00:21:58;;;;;;;5.60;5.03;;;;;;;-141.28;100.00;50864.13;5072511;28;20211;-75
2022/08/18 00:24:27;;;;;;;12.93;5.20;;;;;;;-141.28;100.00;50813.09;5084454;28;20202;-77
2022/08/18 00:26:54;;;;;;;8.57;5.17;;;;;;;-141.28;100.00;50797.38;5058462;28;20204;-75
2022/08/18 00:29:21;;;;;;;6.80;5.53;;;;;;;-141.28;100.00;50760.09;5071810;28;20265;-75
2022/08/18 00:31:50;;;;;;;10.40;5.43;;;;;;;-141.28;100.00;50765.97;5070960;28;20208;-76
2022/08/18 00:34:17;;;;;;;5.90;5.10;;;;;;;-141.28;100.00;50769.91;5082523;28;20202;-74
2022/08/18 00:36:45;;;;;;;8.43;5.77;;;;;;;-141.28;100.00;50765.97;5086656;28;20207;-77
2022/08/18 00:39:12;;;;;;;6.50;5.23;;;;;;;-141.28;100.00;50760.09;5066013;28;20211;-75
2022/08/18 00:41:39;;;;;;;9.83;5.90;;;;;;;-141.28;100.00;50711.00;5084729;28;20187;-72
2022/08/18 00:44:07;;;;;;;11.50;5.67;;;;;;;-141.28;100.00;50671.75;5093136;28;20199;-74
2022/08/18 00:46:38;;;;;;;8.43;5.13;;;;;;;-141.28;100.00;50663.91;5077473;28;20192;-77
2022/08/18 00:49:06;;;;;;;9.00;5.43;;;;;;;-141.28;100.00;50659.97;5071360;28;20251;-75
2022/08/18 00:51:43;;;;;;;8.70;5.90;;;;;;;-141.28;100.00;50581.47;5071142;28;20193;-77
2022/08/18 00:54:15;;;;;;;7.30;5.43;;;;;;;-141.28;100.00;50593.22;5066619;28;20227;-74
2022/08/18 00:56:46;;;;;;;8.73;6.00;;;;;;;-141.28;100.00;50542.19;5075598;28;20710;-74
2022/08/18 00:59:21;;;;;;;6.97;5.60;;;;;;;-141.28;100.00;50546.13;5080702;28;20200;-76
2022/08/18 01:01:51;;;;;;;8.10;5.20;;;;;;;-141.28;100.00;50571.63;5074132;28;20702;-74
2022/08/18 01:04:24;;;;;;;8.70;5.70;;;;;;;-141.28;100.00;50534.34;5072391;28;20218;-76
2022/08/18 01:06:56;;;;;;;10.63;5.90;;;;;;;-141.28;100.00;50514.72;5075422;28;20196;-74
2022/08/18 01:09:24;;;;;;;8.53;5.83;;;;;;;-141.28;100.00;50479.38;5074963;28;20578;-77
2022/08/18 01:11:51;;;;;;;7.70;6.03;;;;;;;-141.28;100.00;50463.69;5090992;28;20283;-75
2022/08/18 01:14:18;;;;;;;8.13;5.60;;;;;;;-141.28;100.00;50467.59;5086931;28;20192;-74
2022/08/18 01:22:25;;;;;;;6.23;5.60;;;;;;;-141.28;100.00;50577.53;5071182;28;20293;-75
2022/08/18 01:27:41;;;;;;;10.13;5.83;;;;;;;-141.28;100.00;50538.28;5085169;28;20329;-74
2022/08/18 01:30:13;;;;;;;8.67;5.87;;;;;;;-141.28;100.00;50499.00;5079228;28;20240;-74
2022/08/18 01:32:44;;;;;;;6.97;5.60;;;;;;;-141.28;100.00;50487.25;5077508;28;20228;-75
2022/08/18 01:35:14;;;;;;;9.83;6.10;;;;;;;-141.28;100.00;50436.19;5081261;28;20306;-75
2022/08/18 01:37:42;;;;;;;7.20;6.17;;;;;;;-141.28;100.00;50434.25;5087697;28;20568;-76
2022/08/18 01:40:16;;;;;;;8.03;5.63;;;;;;;-141.28;100.00;50404.81;5091333;28;20195;-75
2022/08/18 01:42:44;;;;;;;8.00;5.80;;;;;;;-141.28;100.00;50393.03;5083361;28;20209;-75
2022/08/18 01:45:13;;;;;;;9.20;5.67;;;;;;;-141.28;100.00;50369.47;5082831;28;20613;-72
2022/08/18 01:47:43;;;;;;;7.10;5.77;;;;;;;-141.28;100.00;50396.94;5093503;28;20224;-74
2022/08/18 01:50:14;;;;;;;7.77;6.03;;;;;;;-141.28;100.00;50357.69;5056863;28;20235;-74
2022/08/18 01:52:41;;;;;;;12.60;6.43;;;;;;;-141.28;100.00;50363.56;5075611;28;20228;-75
2022/08/18 01:55:10;;;;;;;8.40;6.03;;;;;;;-141.28;100.00;50371.44;5056051;28;20228;-74
2022/08/18 01:57:41;;;;;;;12.03;5.77;;;;;;;-141.28;100.00;50353.75;5070402;28;20196;-75
2022/08/18 02:00:10;;;;;;;10.70;6.27;;;;;;;-141.28;100.00;50373.38;5074640;28;20581;-75
2022/08/18 02:02:37;;;;;;;10.03;6.03;;;;;;;-141.28;100.00;50336.09;5086576;28;20700;-75
2022/08/18 02:05:09;;;;;;;8.90;6.10;;;;;;;-141.28;100.00;50385.16;5074719;28;20211;-75
2022/08/18 02:07:38;;;;;;;7.93;6.17;;;;;;;-141.28;100.00;50369.47;5074184;28;20211;-75
2022/08/18 02:10:09;;;;;;;7.00;5.97;;;;;;;-141.28;100.00;50353.75;5080631;28;20203;-74
2022/08/18 02:12:37;;;;;;;6.67;5.87;;;;;;;-141.28;100.00;50343.94;5079060;28;20200;-74
2022/08/18 02:15:06;;;;;;;12.33;6.13;;;;;;;-141.28;100.00;50377.31;5073993;28;20583;-73
2022/08/18 02:17:38;;;;;;;6.53;5.83;;;;;;;-141.28;100.00;50391.06;5073885;28;20196;-74
2022/08/18 02:20:07;;;;;;;12.03;6.30;;;;;;;-141.28;100.00;50396.94;5074535;28;20667;-77
2022/08/18 02:22:37;;;;;;;8.93;5.87;;;;;;;-141.28;100.00;50404.81;5073259;28;20406;-74
2022/08/18 02:25:05;;;;;;;7.53;5.93;;;;;;;-141.28;100.00;50408.72;5073878;28;20204;-75
2022/08/18 02:27:33;;;;;;;6.60;5.83;;;;;;;-141.28;100.00;50389.09;5055431;28;20219;-76
2022/08/18 02:30:02;;;;;;;9.17;5.40;;;;;;;-141.28;100.00;50404.81;5073675;28;20293;-75
2022/08/18 02:32:29;;;;;;;6.77;6.00;;;;;;;-141.28;100.00;50420.50;5073540;28;20701;-74
2022/08/18 02:34:56;;;;;;;8.40;6.00;;;;;;;-141.28;100.00;50412.66;5073486;28;20200;-75
2022/08/18 02:37:24;;;;;;;8.33;6.10;;;;;;;-141.28;100.00;50463.69;5073559;28;20647;-74
2022/08/18 02:39:51;;;;;;;8.27;6.30;;;;;;;-141.28;100.00;50420.50;5073393;28;20665;-75
2022/08/18 02:42:18;;;;;;;7.53;5.70;;;;;;;-141.28;100.00;50471.53;5076492;28;20610;-75
2022/08/18 02:44:46;;;;;;;7.47;5.77;;;;;;;-141.28;100.00;50493.13;5078038;28;20200;-76
2022/08/18 02:47:15;;;;;;;7.83;6.00;;;;;;;-141.28;100.00;50461.72;5073805;28;20208;-75
2022/08/18 02:49:42;;;;;;;6.23;5.57;;;;;;;-141.28;100.00;50455.84;5064709;28;20236;-74
2022/08/18 02:52:10;;;;;;;8.47;6.03;;;;;;;-141.28;100.00;50479.38;5072133;28;20203;-75
2022/08/18 02:54:37;;;;;;;13.43;6.77;;;;;;;-141.28;100.00;50447.97;5073141;28;20201;-75
2022/08/18 02:57:09;;;;;;;11.00;6.80;;;;;;;-141.28;100.00;50428.34;5073231;28;20609;-74
2022/08/18 02:59:37;;;;;;;13.07;6.80;;;;;;;-141.28;100.00;50381.25;5073182;28;20204;-77
2022/08/18 03:02:06;;;;;;;11.83;7.73;;;;;;;-141.28;100.00;50387.13;5074318;28;20197;-74
2022/08/18 03:04:35;;;;;;;15.07;7.10;;;;;;;-141.28;100.00;50361.63;5073660;28;20283;-75
2022/08/18 03:07:06;;;;;;;15.90;7.73;;;;;;;-141.28;100.00;50345.91;5073675;28;20546;-75
2022/08/18 03:09:34;;;;;;;14.13;7.60;;;;;;;-141.28;100.00;50318.44;5073752;28;20200;-74
2022/08/18 03:12:03;;;;;;;16.17;8.60;;;;;;;-141.28;100.00;50257.59;5072475;28;20202;-77
2022/08/18 03:14:31;;;;;;;22.07;8.47;;;;;;;-141.28;100.00;50204.59;5055954;28;20263;-74
2022/08/18 03:16:59;;;;;;;15.20;8.97;;;;;;;-141.28;100.00;50192.81;5068160;28;20234;-75
2022/08/18 03:19:28;;;;;;;19.63;9.10;;;;;;;-141.28;100.00;50173.19;5074321;28;20200;-74
2022/08/18 03:21:58;;;;;;;14.83;8.80;;;;;;;-141.28;100.00;50130.00;5080830;28;20211;-73
2022/08/18 03:24:27;;;;;;;21.77;10.20;;;;;;;-141.28;100.00;50086.84;5091196;28;20196;-77
2022/08/18 03:26:56;;;;;;;18.50;9.37;;;;;;;-141.28;100.00;50055.44;5095417;28;20202;-76
2022/08/18 03:29:24;;;;;;;15.20;8.77;;;;;;;-141.28;100.00;50000.47;5086901;28;20200;-74
2022/08/18 03:31:51;;;;;;;12.33;8.83;;;;;;;-141.28;100.00;49949.44;5075337;28;20307;-74
2022/08/18 03:34:21;;;;;;;14.80;8.20;;;;;;;-141.28;100.00;49894.50;5091115;28;20274;-75
2022/08/18 03:36:51;;;;;;;12.73;7.90;;;;;;;-141.28;100.00;49874.88;5081551;28;20222;-74
2022/08/18 03:39:22;;;;;;;10.10;7.80;;;;;;;-141.28;100.00;49874.88;5071961;28;20192;-74
2022/08/18 03:41:52;;;;;;;20.30;8.37;;;;;;;-141.28;100.00;49863.09;5072557;28;20196;-77
2022/08/18 03:44:19;;;;;;;30.07;9.53;;;;;;;-141.28;100.00;49816.00;5089811;28;20200;-74
2022/08/18 03:46:50;;;;;;;15.03;8.33;;;;;;;-141.28;100.00;49796.38;5080889;28;20199;-75
2022/08/18 03:49:19;;;;;;;11.00;8.37;;;;;;;-141.28;100.00;49784.59;5071926;28;20220;-74
2022/08/18 03:51:47;;;;;;;20.40;8.47;;;;;;;-141.28;100.00;49770.88;5083935;28;20200;-74
2022/08/18 03:54:17;;;;;;;32.87;9.73;;;;;;;-141.28;100.00;49778.72;5060200;28;20227;-78
2022/08/18 03:56:53;;;;;;;20.17;9.93;;;;;;;-141.28;100.00;49753.19;5091552;28;20659;-77
2022/08/18 03:59:23;;;;;;;12.40;8.10;;;;;;;-141.28;100.00;49745.34;5060235;28;20200;-75
2022/08/18 04:01:52;;;;;;;11.40;8.37;;;;;;;-141.28;100.00;49753.19;5071859;28;20636;-74
2022/08/18 04:04:23;;;;;;;14.37;7.83;;;;;;;-141.28;100.00;49723.75;5071292;28;20203;-75
2022/08/18 04:06:54;;;;;;;13.47;8.23;;;;;;;-141.28;100.00;49741.44;5082813;28;20205;-74
2022/08/18 04:09:23;;;;;;;14.37;8.37;;;;;;;-141.28;100.00;49719.84;5072465;28;20604;-75
2022/08/18 04:11:54;;;;;;;13.90;8.17;;;;;;;-141.28;100.00;49741.44;5071927;28;20204;-76
2022/08/18 04:14:27;;;;;;;13.10;7.70;;;;;;;-141.28;100.00;49713.94;5090738;28;20195;-76
2022/08/18 04:16:54;;;;;;;22.30;9.50;;;;;;;-141.28;100.00;49712.00;5077366;28;20323;-75
2022/08/18 04:19:22;;;;;;;17.17;8.30;;;;;;;-141.28;100.00;49725.72;5071117;28;20203;-75
2022/08/18 04:21:52;;;;;;;25.80;8.80;;;;;;;-141.28;100.00;49741.44;5070659;28;20583;-74
2022/08/18 04:24:19;;;;;;;19.83;8.90;;;;;;;-141.28;100.00;49808.16;5072023;28;20200;-76
2022/08/18 04:26:48;;;;;;;19.60;8.67;;;;;;;-141.28;100.00;49823.84;5082987;28;20192;-75
2022/08/18 04:29:19;;;;;;;16.30;9.20;;;;;;;-141.28;100.00;49886.66;5071068;28;20231;-75
2022/08/18 04:31:47;;;;;;;13.93;8.50;;;;;;;-141.28;100.00;49910.19;5070750;28;20304;-76
2022/08/18 04:34:16;;;;;;;20.23;10.00;;;;;;;-141.28;100.00;49910.19;5061523;28;20290;-75
2022/08/18 04:36:44;;;;;;;15.77;9.07;;;;;;;-141.28;100.00;49945.53;5077074;28;20710;-74
2022/08/18 04:39:14;;;;;;;17.43;8.87;;;;;;;-141.28;100.00;49967.13;5082520;28;20200;-73
2022/08/18 04:41:43;;;;;;;17.77;9.00;;;;;;;-141.28;100.00;49969.06;5086436;28;20211;-76
2022/08/18 04:44:13;;;;;;;16.50;8.40;;;;;;;-141.28;100.00;50031.88;5083971;28;20196;-74
2022/08/18 04:46:45;;;;;;;24.40;9.70;;;;;;;-141.28;100.00;50082.91;5074587;28;20192;-74
2022/08/18 04:49:12;;;;;;;19.13;9.17;;;;;;;-141.28;100.00;50069.16;5071299;28;20235;-76
2022/08/18 04:51:42;;;;;;;12.77;8.20;;;;;;;-141.28;100.00;50067.22;5087654;28;20229;-75
2022/08/18 04:54:08;;;;;;;18.80;7.93;;;;;;;-141.28;100.00;50098.63;5089415;28;20571;-73
2022/08/18 04:56:38;;;;;;;17.60;8.63;;;;;;;-141.28;100.00;50090.75;5089825;28;20223;-74
2022/08/18 04:59:06;;;;;;;13.13;8.40;;;;;;;-141.28;100.00;50124.13;5084604;28;20663;-75
2022/08/18 05:01:36;;;;;;;14.67;8.30;;;;;;;-141.28;100.00;50157.50;5082633;28;20226;-74
2022/08/18 05:04:05;;;;;;;14.23;8.17;;;;;;;-141.28;100.00;50212.44;5052362;28;20261;-74
2022/08/18 05:06:32;;;;;;;9.87;7.83;;;;;;;-141.28;100.00;50345.91;5056307;28;20209;-73
2022/08/18 05:09:02;;;;;;;18.10;8.13;;;;;;;-141.28;100.00;50432.28;5083025;28;20587;-76
2022/08/18 05:11:32;;;;;;;14.23;8.80;;;;;;;-141.28;100.00;50479.38;5088873;28;20203;-75
2022/08/18 05:13:59;;;;;;;14.70;8.27;;;;;;;-141.28;100.00;50583.41;5085609;28;20287;-72
2022/08/18 05:16:28;;;;;;;15.43;7.97;;;;;;;-141.28;100.00;50724.75;5083507;28;20744;-73
2022/08/18 05:18:55;;;;;;;13.57;7.43;;;;;;;-141.28;100.00;50726.72;5089547;28;20748;-74
2022/08/18 05:21:24;;;;;;;12.33;7.87;;;;;;;-141.28;100.00;50864.13;5079000;28;20187;-74
2022/08/18 05:23:52;;;;;;;16.53;7.43;;;;;;;-141.28;100.00;50946.59;5093065;28;20203;-73
2022/08/18 05:26:19;;;;;;;11.90;6.27;;;;;;;-141.28;100.00;51111.50;5092393;28;20196;-76
2022/08/18 05:28:47;;;;;;;15.60;7.37;;;;;;;-141.28;100.00;51219.47;5093327;28;20637;-73
2022/08/18 05:31:19;;;;;;;10.93;7.13;;;;;;;-141.28;100.00;51248.91;5093071;28;20649;-75
2022/08/18 05:33:47;;;;;;;10.73;6.63;;;;;;;-141.28;100.00;51343.16;5093187;28;20207;-74
2022/08/18 05:36:38;;;;;;;9.10;6.27;;;;;;;-141.28;100.00;51498.28;5091707;28;20587;-75
2022/08/18 05:39:12;;;;;;;12.70;6.43;;;;;;;-141.28;100.00;51606.25;5085088;28;20257;-76
2022/08/18 05:41:43;;;;;;;13.10;7.33;;;;;;;-141.28;100.00;51567.00;5095868;28;20279;-77
2022/08/18 05:44:16;;;;;;;8.50;7.00;;;;;;;-141.28;100.00;51543.44;5107295;28;20202;-76
2022/08/18 05:46:51;;;;;;;10.47;6.90;;;;;;;-141.28;100.00;51498.28;5095097;28;20716;-73
2022/08/18 05:50:48;;;;;;;8.10;6.50;;;;;;;-141.28;100.00;51504.16;5090178;27;1534774;-74
2022/08/18 05:56:45;;;;;;;7.97;6.37;;;;;;;-141.28;100.00;51572.88;5123338;28;20198;-73
2022/08/18 05:58:58;;;;;;;11.13;7.13;;;;;;;-141.28;100.00;51596.44;5130063;28;20230;-75
2022/08/18 06:01:29;;;;;;;13.57;7.07;;;;;;;-141.28;100.00;51578.78;5131124;28;20652;-77
2022/08/18 06:04:02;;;;;;;8.57;6.73;;;;;;;-141.28;100.00;51527.72;5117029;28;20281;-76
2022/08/18 06:06:32;;;;;;;15.23;7.83;;;;;;;-141.28;100.00;51437.41;5130881;28;20195;-75
2022/08/18 06:09:09;;;;;;;12.90;7.10;;;;;;;-141.28;100.00;51303.88;5118073;28;20190;-77
2022/08/18 06:11:37;;;;;;;11.53;6.90;;;;;;;-141.28;100.00;51178.25;5117563;28;20201;-74
2022/08/18 06:14:05;;;;;;;11.70;6.53;;;;;;;-141.28;100.00;51127.19;5110396;28;20189;-77
2022/08/18 06:16:43;;;;;;;8.60;6.60;;;;;;;-141.28;100.00;51119.34;5124337;28;20190;-75
2022/08/18 06:19:28;;;;;;;14.93;7.23;;;;;;;-141.28;100.00;51025.09;5120069;28;20643;-75
2022/08/18 06:22:07;;;;;;;11.37;6.73;;;;;;;-141.28;100.00;50989.78;5106012;28;20199;-75
2022/08/18 06:24:39;;;;;;;15.20;7.10;;;;;;;-141.28;100.00;50997.63;5124935;28;20205;-76
2022/08/18 06:27:15;;;;;;;13.67;6.80;;;;;;;-141.28;100.00;50968.19;5092641;28;20198;-74
2022/08/18 06:29:55;;;;;;;13.17;7.30;;;;;;;-141.28;100.00;50926.94;5111091;28;20262;-75
2022/08/18 06:32:35;;;;;;;15.23;6.83;;;;;;;-141.28;100.00;50817.03;5123839;28;20218;-77
2022/08/18 06:35:16;;;;;;;10.83;7.17;;;;;;;-141.28;100.00;50785.59;5120246;28;20198;-76
2022/08/18 06:40:42;;;;;;;9.90;7.03;;;;;;;-141.28;100.00;50671.75;5123341;28;20232;-74
2022/08/18 06:43:14;;;;;;;9.57;7.00;;;;;;;-141.28;100.00;50583.41;5109377;28;20194;-73
2022/08/18 06:45:47;;;;;;;12.77;6.63;;;;;;;-141.28;100.00;50563.78;5115343;28;20212;-74
2022/08/18 06:48:20;;;;;;;15.00;7.57;;;;;;;-141.28;100.00;50510.78;5110397;28;20256;-76
2022/08/18 06:50:51;;;;;;;12.80;6.63;;;;;;;-141.28;100.00;50495.09;5113535;28;20231;-76
2022/08/18 06:53:20;;;;;;;10.73;6.40;;;;;;;-141.28;100.00;50569.69;5115867;28;20588;-75
2022/08/18 06:55:50;;;;;;;11.10;6.60;;;;;;;-141.28;100.00;50624.63;5103785;28;20567;-76
2022/08/18 06:58:25;;;;;;;15.90;7.73;;;;;;;-141.28;100.00;50465.66;5125025;28;20253;-75
2022/08/18 07:01:00;;;;;;;11.90;7.47;;;;;;;-141.28;100.00;50506.88;5101366;28;20304;-75
2022/08/18 07:03:42;;;;;;;18.00;7.33;;;;;;;-141.28;100.00;50351.81;5094440;28;20186;-74
2022/08/18 07:06:24;;;;;;;11.47;7.33;;;;;;;-141.28;100.00;50216.38;5094107;28;20661;-73
2022/08/18 07:08:54;;;;;;;14.50;8.13;;;;;;;-141.28;100.00;50135.91;5094178;28;20636;-75
2022/08/18 07:11:23;;;;;;;11.80;7.73;;;;;;;-141.28;100.00;50016.19;5094157;28;20199;-74
2022/08/18 07:13:53;;;;;;;10.60;7.10;;;;;;;-141.28;100.00;49945.53;5093907;28;20202;-76
2022/08/18 07:16:25;;;;;;;12.20;7.60;;;;;;;-141.28;100.00;49867.03;5107045;28;20203;-76
2022/08/18 07:18:52;;;;;;;12.33;7.20;;;;;;;-141.28;100.00;49766.94;5094495;28;20610;-74
2022/08/18 07:21:27;;;;;;;7.57;6.60;;;;;;;-141.28;100.00;49694.31;5094878;28;20193;-76
2022/08/18 07:24:04;;;;;;;10.67;7.00;;;;;;;-141.28;100.00;49694.31;5094077;28;20205;-75
2022/08/18 07:26:51;;;;;;;10.83;8.07;;;;;;;-141.28;100.00;49655.09;5107838;28;20197;-74
2022/08/18 07:29:19;;;;;;;13.03;7.77;;;;;;;-141.28;100.00;49635.47;5093867;28;20243;-74
2022/08/18 07:31:49;;;;;;;13.97;7.60;;;;;;;-141.28;100.00;49713.94;5093936;28;20593;-75
2022/08/18 07:34:20;;;;;;;9.97;7.17;;;;;;;-141.28;100.00;49678.63;5096387;28;20707;-74
2022/08/18 07:36:55;;;;;;;10.93;6.97;;;;;;;-141.28;100.00;49643.31;5104757;28;20202;-74
2022/08/18 07:39:30;;;;;;;11.47;6.70;;;;;;;-141.28;100.00;49894.50;5108006;28;20233;-73
2022/08/18 07:42:03;;;;;;;11.13;6.60;;;;;;;-141.28;100.00;50082.91;5093778;28;20711;-76
2022/08/18 07:44:42;;;;;;;13.53;6.80;;;;;;;-141.28;100.00;50020.09;5093604;28;20196;-74
2022/08/18 07:47:16;;;;;;;13.67;6.53;;;;;;;-141.28;100.00;49949.44;5094488;28;20209;-75
2022/08/18 07:49:44;;;;;;;16.63;6.43;;;;;;;-141.28;100.00;49894.50;5083884;28;20224;-74
2022/08/18 07:52:20;;;;;;;16.83;6.40;;;;;;;-141.28;100.00;49721.81;5090511;28;20196;-74
2022/08/18 07:54:59;;;;;;;9.97;6.57;;;;;;;-141.28;100.00;49827.78;5094098;28;20223;-74
2022/08/18 07:57:38;;;;;;;10.50;6.20;;;;;;;-141.28;100.00;50063.28;5093778;28;20192;-76
2022/08/18 08:00:11;;;;;;;10.07;5.93;;;;;;;-141.28;100.00;49710.03;5094652;28;20233;-75
2022/08/18 08:02:50;;;;;;;8.60;6.40;;;;;;;-141.28;100.00;49763.00;5093017;28;20285;-76
2022/08/18 08:05:24;;;;;;;13.53;6.50;;;;;;;-141.28;100.00;49674.72;5101272;28;20632;-76
2022/08/18 08:07:58;;;;;;;11.50;6.17;;;;;;;-141.28;100.00;49509.88;5096774;28;20205;-75
2022/08/18 08:10:34;;;;;;;15.13;6.40;;;;;;;-141.28;100.00;49494.16;5093531;28;20210;-74
2022/08/18 08:13:10;;;;;;;9.87;6.80;;;;;;;-141.28;100.00;49364.66;5092040;28;20202;-74
2022/08/18 08:15:49;;;;;;;10.63;6.17;;;;;;;-141.28;100.00;49119.38;5079712;28;20212;-77
2022/08/18 08:18:22;;;;;;;14.37;6.57;;;;;;;-141.28;100.00;48999.72;5085786;28;20189;-74
2022/08/18 08:20:55;;;;;;;9.50;6.13;;;;;;;-141.28;100.00;48917.31;5095829;28;20232;-75
2022/08/18 08:23:29;;;;;;;10.07;6.30;;;;;;;-141.28;100.00;48807.44;5081869;28;20227;-76
2022/08/18 08:26:11;;;;;;;7.53;6.17;;;;;;;-141.28;100.00;48807.44;5095322;28;20201;-74
2022/08/18 08:28:48;;;;;;;9.87;5.70;;;;;;;-141.28;100.00;48752.50;5100540;28;20212;-76
2022/08/18 08:31:26;;;;;;;9.53;5.87;;;;;;;-141.28;100.00;48709.34;5105786;28;20566;-76
2022/08/18 08:33:59;;;;;;;9.57;6.30;;;;;;;-141.28;100.00;48701.50;5092778;28;20199;-75
2022/08/18 08:36:30;;;;;;;10.70;6.00;;;;;;;-141.28;100.00;48689.72;5097367;28;20252;-76
2022/08/18 08:39:01;;;;;;;11.47;5.53;;;;;;;-141.28;100.00;48650.50;5112149;28;20200;-75
2022/08/18 08:41:36;;;;;;;10.20;5.07;;;;;;;-141.28;100.00;48638.72;5111415;28;20315;-75
2022/08/18 08:44:12;;;;;;;9.07;5.30;;;;;;;-141.28;100.00;48615.19;5115122;28;20280;-75
2022/08/18 08:46:45;;;;;;;9.03;4.80;;;;;;;-141.28;100.00;48626.94;5111307;28;20204;-75
2022/08/18 08:49:28;;;;;;;9.60;5.00;;;;;;;-141.28;100.00;48583.78;5101786;28;20239;-75
2022/08/18 08:51:59;;;;;;;7.47;5.07;;;;;;;-141.28;100.00;48628.91;5092158;28;20198;-74
2022/08/18 08:54:31;;;;;;;7.57;4.93;;;;;;;-141.28;100.00;48640.69;5101589;28;20209;-75
2022/08/18 08:57:01;;;;;;;10.30;5.13;;;;;;;-141.28;100.00;48630.88;5095244;28;20208;-75
2022/08/18 08:59:29;;;;;;;8.30;4.87;;;;;;;-141.28;100.00;48644.59;5091736;28;20231;-74
2022/08/18 09:02:17;;;;;;;10.47;5.13;;;;;;;-141.28;100.00;48634.78;5091875;28;20195;-75
2022/08/18 09:05:01;;;;;;;10.73;4.77;;;;;;;-141.28;100.00;48634.78;5092161;28;20251;-74
2022/08/18 09:07:40;;;;;;;7.57;5.07;;;;;;;-141.28;97.79;48630.88;5092193;28;20256;-76
2022/08/18 09:10:39;;;;;;;9.17;5.83;;;;;;;-141.28;100.00;48636.75;5091804;28;20244;-78
2022/08/18 09:13:28;;;;;;;7.87;4.83;;;;;;;-141.28;100.00;48603.41;5091744;28;20268;-75
2022/08/18 09:16:14;;;;;;;6.30;4.80;;;;;;;-141.28;100.00;48583.78;5092069;28;20657;-74
2022/08/18 09:18:56;;;;;;;9.23;5.00;;;;;;;-141.28;96.21;48583.78;5088570;28;20662;-77
2022/08/18 09:21:35;;;;;;;9.30;5.33;;;;;;;-141.28;86.26;48579.88;5104145;28;20613;-75
2022/08/18 09:24:09;;;;;;;10.37;4.73;;;;;;;-141.28;80.71;48572.00;5111363;28;20208;-75
2022/08/18 09:26:45;;;;;;;7.30;4.17;;;;;;;-141.28;74.93;48564.16;5111452;28;20196;-74
2022/08/18 09:29:23;;;;;;;5.87;4.30;;;;;;;-141.28;72.04;48554.34;5094662;28;20202;-75
2022/08/18 09:32:37;;;;;;;7.80;4.47;;;;;;;-141.28;68.33;48556.31;5091589;28;20222;-74
2022/08/18 09:35:18;;;;;;;13.87;5.43;;;;;;;-141.28;68.64;48536.69;5091948;28;20214;-75
2022/08/18 09:41:30;;;;;;;9.40;4.70;;;;;;;-141.28;69.55;48489.63;5078577;28;20283;-75
2022/08/18 09:43:38;;;;;;;7.33;4.60;;;;;;;-141.28;67.17;48591.63;5110553;28;20197;-74
2022/08/18 09:46:08;;;;;;;7.40;5.30;;;;;;;-141.28;68.56;48572.00;5110963;28;20205;-76
2022/08/18 09:48:35;;;;;;;6.50;4.67;;;;;;;-141.28;68.67;48577.91;5111254;28;20197;-75
2022/08/18 09:51:23;;;;;;;6.63;4.80;;;;;;;-141.28;70.69;48568.09;5108605;28;20224;-75
2022/08/18 09:54:20;;;;;;;5.80;4.17;;;;;;;-141.28;70.87;48591.63;5091338;28;20204;-77
2022/08/18 09:57:19;;;;;;;6.43;4.50;;;;;;;-141.28;69.79;48564.16;5078249;28;20206;-77
2022/08/18 09:59:56;;;;;;;8.03;4.40;;;;;;;-141.28;67.79;48709.34;5090822;28;20198;-75
2022/08/18 10:03:11;;;;;;;6.00;4.90;;;;;;;-141.28;65.66;48560.25;5099908;28;20196;-74
2022/08/18 10:05:54;;;;;;;6.77;4.70;;;;;;;-141.28;66.20;48575.94;5079833;28;20207;-76
2022/08/18 10:08:49;;;;;;;7.03;4.70;;;;;;;-141.28;69.66;48568.09;5108287;28;20193;-75
2022/08/18 10:11:35;;;;;;;5.47;4.10;;;;;;;-141.28;68.38;48564.16;5104257;28;20207;-76
2022/08/18 10:14:28;;;;;;;8.60;4.13;;;;;;;-141.28;64.04;48564.16;5096736;28;20201;-76
2022/08/18 10:17:02;;;;;;;6.20;4.70;;;;;;;-141.28;64.04;48552.41;5096718;28;20732;-76
2022/08/18 10:19:38;;;;;;;13.00;5.40;;;;;;;-141.28;67.30;48568.09;5092099;28;20202;-75
2022/08/18 10:22:09;;;;;;;9.43;4.77;;;;;;;-141.28;65.66;48579.88;5101288;28;20193;-76
2022/08/18 10:24:41;;;;;;;10.80;5.07;;;;;;;-141.28;63.96;48536.69;5096996;28;20212;-75
2022/08/18 10:27:14;;;;;;;9.37;4.43;;;;;;;-141.28;59.33;48540.63;5110468;28;20206;-74
2022/08/18 10:29:50;;;;;;;5.73;4.53;;;;;;;-141.28;60.55;48552.41;5104146;28;20238;-77
2022/08/18 10:32:23;;;;;;;6.90;4.67;;;;;;;-141.28;61.87;48556.31;5090360;28;20220;-75
2022/08/18 10:34:54;;;;;;;5.83;4.47;;;;;;;-141.28;61.33;48530.81;5090686;28;20670;-75
2022/08/18 10:37:26;;;;;;;7.23;4.60;;;;;;;-141.28;59.62;48534.75;5108141;28;20202;-76
2022/08/18 10:39:56;;;;;;;7.50;4.27;;;;;;;-141.28;57.07;48505.31;5114219;28;20657;-75
2022/08/18 10:42:27;;;;;;;10.10;5.03;;;;;;;-141.28;58.24;48521.00;5119513;28;20203;-76
2022/08/18 10:45:20;;;;;;;7.90;4.50;;;;;;;-141.28;56.87;48513.16;5113446;28;20633;-78
2022/08/18 10:48:02;;;;;;;5.57;4.60;;;;;;;-141.28;56.59;48481.78;5107790;28;20207;-74
2022/08/18 10:50:34;;;;;;;8.33;4.97;;;;;;;-141.28;59.09;48546.50;5104167;28;20240;-77
2022/08/18 10:53:14;;;;;;;5.70;4.27;;;;;;;-141.28;59.59;48566.13;5097830;28;20597;-76
2022/08/18 10:55:50;;;;;;;7.67;4.47;;;;;;;-141.28;61.69;48548.47;5106622;28;20218;-75
2022/08/18 10:58:40;;;;;;;8.50;4.40;;;;;;;-141.28;57.91;48521.00;5101280;28;20578;-76
2022/08/18 11:01:18;;;;;;;5.70;4.10;;;;;;;-141.28;54.67;48505.31;5100459;28;20225;-74
2022/08/18 11:04:04;;;;;;;6.67;4.23;;;;;;;-141.28;53.10;48489.63;5102736;28;20202;-75
2022/08/18 11:06:40;;;;;;;10.63;4.77;;;;;;;-141.28;52.19;48503.34;5082313;28;20198;-75
2022/08/18 11:09:10;;;;;;;7.83;4.47;;;;;;;-141.28;54.81;48491.59;5107310;28;20192;-76
2022/08/18 11:11:42;;;;;;;7.53;4.23;;;;;;;-141.28;51.62;48475.88;5104192;28;20199;-75
2022/08/18 11:14:40;;;;;;;7.37;4.10;;;;;;;-141.28;52.16;48495.50;5113755;28;20567;-75
2022/08/18 11:17:16;;;;;;;8.37;4.13;;;;;;;-141.28;54.06;48528.84;5098760;28;20670;-74
2022/08/18 11:19:46;;;;;;;6.13;4.20;;;;;;;-141.28;54.87;48552.41;5101419;28;20665;-74
2022/08/18 11:22:23;;;;;;;7.03;4.30;;;;;;;-141.28;56.87;48607.31;5104603;28;20230;-75
2022/08/18 11:24:52;;;;;;;5.90;4.40;;;;;;;-141.28;57.86;48685.81;5094846;28;20214;-76
2022/08/18 11:27:22;;;;;;;6.27;4.23;;;;;;;-141.28;53.59;48540.63;5101881;28;20625;-75
2022/08/18 11:29:51;;;;;;;7.13;4.90;;;;;;;-141.28;56.01;48532.78;5107265;28;20210;-75
2022/08/18 11:32:22;;;;;;;6.20;4.07;;;;;;;-141.28;52.23;48491.59;5107284;28;20695;-75
2022/08/18 11:34:53;;;;;;;5.03;4.23;;;;;;;-141.28;49.41;48497.47;5080662;28;20208;-75
2022/08/18 11:37:24;;;;;;;4.30;3.90;;;;;;;-141.28;48.95;48487.66;5093571;28;20205;-75
2022/08/18 11:39:55;;;;;;;6.47;4.30;;;;;;;-141.28;48.25;48477.84;5101712;28;20210;-75
2022/08/18 11:42:28;;;;;;;7.57;4.80;;;;;;;-141.28;48.80;48473.94;5100066;28;20230;-75
2022/08/18 11:45:03;;;;;;;6.40;4.53;;;;;;;-141.28;46.44;48452.34;5104144;28;20203;-76
2022/08/18 11:47:30;;;;;;;5.27;4.20;;;;;;;-141.28;46.13;48436.66;5103215;28;20199;-74
2022/08/18 11:50:07;;;;;;;5.20;4.07;;;;;;;-141.28;45.53;48434.69;5112267;28;20231;-74
2022/08/18 11:52:47;;;;;;;7.33;4.20;;;;;;;-141.28;45.84;48438.63;5081789;28;20191;-75